createdAt,value
2017-02-17T00:00:22.405Z,1017.71
2017-02-17T00:01:35.522Z,1017.72
2017-02-17T00:02:48.668Z,1017.73
2017-02-17T00:04:01.764Z,1017.77
2017-02-17T00:05:14.492Z,1017.76
2017-02-17T00:06:27.600Z,1017.71
2017-02-17T00:07:40.696Z,1017.72
2017-02-17T00:08:53.816Z,1017.71
2017-02-17T00:10:06.920Z,1017.67
2017-02-17T00:11:19.678Z,1017.61
2017-02-17T00:12:32.805Z,1017.57
2017-02-17T00:13:45.927Z,1017.51
2017-02-17T00:14:59.003Z,1017.49
2017-02-17T00:16:12.146Z,1017.47
2017-02-17T00:17:25.250Z,1017.45
2017-02-17T00:18:38.359Z,1017.42
2017-02-17T00:19:51.423Z,1017.43
2017-02-17T00:21:04.508Z,1017.42
2017-02-17T00:22:17.222Z,1017.37
2017-02-17T00:23:30.323Z,1017.34
2017-02-17T00:24:43.451Z,1017.3
2017-02-17T00:25:56.570Z,1017.3
2017-02-17T00:27:09.761Z,1017.28
2017-02-17T00:28:22.519Z,1017.26
2017-02-17T00:29:35.640Z,1017.29
2017-02-17T00:30:48.729Z,1017.28
2017-02-17T00:32:02.100Z,1017.3
2017-02-17T00:33:15.215Z,1017.34
2017-02-17T00:34:28.281Z,1017.32
2017-02-17T00:35:40.977Z,1017.34
2017-02-17T00:36:54.102Z,1017.31
2017-02-17T00:38:06.775Z,1017.3
2017-02-17T00:39:19.870Z,1017.24
2017-02-17T00:40:32.991Z,1017.26
2017-02-17T00:41:46.113Z,1017.23
2017-02-17T00:42:59.456Z,1017.25
2017-02-17T00:44:12.578Z,1017.23
2017-02-17T00:45:25.280Z,1017.24
2017-02-17T00:46:38.407Z,1017.25
2017-02-17T00:47:51.122Z,1017.22
2017-02-17T00:49:04.211Z,1017.16
2017-02-17T00:50:17.296Z,1017.17
2017-02-17T00:51:30.380Z,1017.25
2017-02-17T00:52:43.475Z,1017.22
2017-02-17T00:53:56.568Z,1017.19
2017-02-17T00:55:09.717Z,1017.24
2017-02-17T00:56:22.781Z,1017.23
2017-02-17T00:57:35.851Z,1017.18
2017-02-17T00:58:48.926Z,1017.15
2017-02-17T01:00:01.994Z,1017.16
2017-02-17T01:01:14.666Z,1017.16
2017-02-17T01:02:27.386Z,1017.16
2017-02-17T01:03:40.449Z,1017.09
2017-02-17T01:04:53.526Z,1017.05
2017-02-17T01:06:06.224Z,1017.08
2017-02-17T01:07:19.294Z,1017.05
2017-02-17T01:08:32.388Z,1017.01
2017-02-17T01:09:45.494Z,1016.99
2017-02-17T01:10:58.613Z,1017
2017-02-17T01:12:11.753Z,1017
2017-02-17T01:13:24.066Z,1017
2017-02-17T01:14:37.221Z,1017.02
2017-02-17T01:15:50.271Z,1017.01
2017-02-17T01:17:03.372Z,1016.98
2017-02-17T01:18:16.094Z,1017.05
2017-02-17T01:19:29.231Z,1017.06
2017-02-17T01:20:42.375Z,1017.03
2017-02-17T01:21:55.426Z,1016.98
2017-02-17T01:23:08.171Z,1016.97
2017-02-17T01:24:20.515Z,1016.92
2017-02-17T01:25:33.257Z,1016.93
2017-02-17T01:26:46.396Z,1016.93
2017-02-17T01:27:59.521Z,1016.98
2017-02-17T01:29:12.669Z,1016.93
2017-02-17T01:30:25.376Z,1016.93
2017-02-17T01:31:38.445Z,1016.89
2017-02-17T01:32:51.565Z,1016.86
2017-02-17T01:34:04.675Z,1016.87
2017-02-17T01:35:17.730Z,1016.85
2017-02-17T01:36:30.420Z,1016.85
2017-02-17T01:37:43.542Z,1016.83
2017-02-17T01:38:56.613Z,1016.85
2017-02-17T01:40:09.275Z,1016.8
2017-02-17T01:41:22.330Z,1016.82
2017-02-17T01:42:35.422Z,1016.82
2017-02-17T01:43:48.499Z,1016.86
2017-02-17T01:45:01.592Z,1016.83
2017-02-17T01:46:14.270Z,1016.83
2017-02-17T01:47:27.000Z,1016.83
2017-02-17T01:48:40.079Z,1016.81
2017-02-17T01:49:53.199Z,1016.75
2017-02-17T01:51:06.270Z,1016.73
2017-02-17T01:52:19.042Z,1016.73
2017-02-17T01:53:32.155Z,1016.72
2017-02-17T01:54:45.289Z,1016.68
2017-02-17T01:55:58.004Z,1016.62
2017-02-17T01:57:10.707Z,1016.66
2017-02-17T01:58:23.404Z,1016.72
2017-02-17T01:59:36.468Z,1016.72
2017-02-17T02:00:49.219Z,1016.69
2017-02-17T02:02:02.358Z,1016.67
2017-02-17T02:03:15.431Z,1016.61
2017-02-17T02:04:28.100Z,1016.62
2017-02-17T02:05:41.202Z,1016.62
2017-02-17T02:06:54.292Z,1016.64
2017-02-17T02:08:06.563Z,1016.6
2017-02-17T02:09:19.633Z,1016.6
2017-02-17T02:10:32.365Z,1016.6
2017-02-17T02:11:45.467Z,1016.61
2017-02-17T02:12:58.572Z,1016.54
2017-02-17T02:14:11.266Z,1016.55
2017-02-17T02:15:24.014Z,1016.54
2017-02-17T02:16:37.091Z,1016.48
2017-02-17T02:17:50.180Z,1016.47
2017-02-17T02:19:02.883Z,1016.42
2017-02-17T02:20:15.233Z,1016.49
2017-02-17T02:21:28.343Z,1016.53
2017-02-17T02:22:41.439Z,1016.48
2017-02-17T02:23:54.559Z,1016.44
2017-02-17T02:25:07.630Z,1016.48
2017-02-17T02:26:20.694Z,1016.47
2017-02-17T02:27:33.774Z,1016.4
2017-02-17T02:28:46.868Z,1016.49
2017-02-17T02:29:59.945Z,1016.44
2017-02-17T02:31:13.020Z,1016.48
2017-02-17T02:32:26.136Z,1016.48
2017-02-17T02:33:39.300Z,1016.45
2017-02-17T02:34:52.439Z,1016.49
2017-02-17T02:36:05.560Z,1016.36
2017-02-17T02:37:18.638Z,1016.33
2017-02-17T02:38:32.010Z,1016.32
2017-02-17T02:39:45.106Z,1016.29
2017-02-17T02:40:58.154Z,1016.26
2017-02-17T02:42:11.251Z,1016.27
2017-02-17T02:43:23.995Z,1016.33
2017-02-17T02:44:37.125Z,1016.37
2017-02-17T02:45:50.242Z,1016.35
2017-02-17T02:47:03.355Z,1016.3
2017-02-17T02:48:16.133Z,1016.28
2017-02-17T02:49:29.229Z,1016.3
2017-02-17T02:50:42.319Z,1016.24
2017-02-17T02:51:55.056Z,1016.22
2017-02-17T02:53:08.122Z,1016.2
2017-02-17T02:54:21.248Z,1016.14
2017-02-17T02:55:34.333Z,1016.16
2017-02-17T02:56:47.425Z,1016.16
2017-02-17T02:58:00.520Z,1016.14
2017-02-17T02:59:13.646Z,1016.13
2017-02-17T03:00:26.746Z,1016.11
2017-02-17T03:01:39.481Z,1016.14
2017-02-17T03:02:52.585Z,1016.18
2017-02-17T03:04:05.671Z,1016.14
2017-02-17T03:05:18.585Z,1016.13
2017-02-17T03:06:31.265Z,1016.12
2017-02-17T03:07:44.336Z,1016.13
2017-02-17T03:08:57.388Z,1016.16
2017-02-17T03:10:10.455Z,1016.14
2017-02-17T03:11:23.524Z,1016.15
2017-02-17T03:12:36.628Z,1016.14
2017-02-17T03:13:49.714Z,1016.11
2017-02-17T03:15:02.812Z,1016.17
2017-02-17T03:16:15.512Z,1016.16
2017-02-17T03:17:28.612Z,1016.16
2017-02-17T03:18:41.659Z,1016.14
2017-02-17T03:19:54.722Z,1016.15
2017-02-17T03:21:07.440Z,1016.18
2017-02-17T03:22:19.367Z,1016.15
2017-02-17T03:23:32.467Z,1016.13
2017-02-17T03:24:45.614Z,1016.18
2017-02-17T03:25:58.700Z,1016.18
2017-02-17T03:27:11.776Z,1016.21
2017-02-17T03:28:24.115Z,1016.17
2017-02-17T03:29:37.213Z,1016.18
2017-02-17T03:30:50.274Z,1016.15
2017-02-17T03:32:03.336Z,1016.15
2017-02-17T03:33:15.299Z,1016.08
2017-02-17T03:34:27.975Z,1016.09
2017-02-17T03:35:41.102Z,1016.08
2017-02-17T03:36:54.212Z,1016.06
2017-02-17T03:38:07.283Z,1016.07
2017-02-17T03:39:19.953Z,1016.04
2017-02-17T03:40:33.105Z,1016.02
2017-02-17T03:41:46.238Z,1016.02
2017-02-17T03:42:59.544Z,1015.99
2017-02-17T03:44:12.609Z,1016.01
2017-02-17T03:45:24.942Z,1016.04
2017-02-17T03:46:38.084Z,1016
2017-02-17T03:47:51.180Z,1016.01
2017-02-17T03:49:04.255Z,1016.09
2017-02-17T03:50:17.347Z,1016.11
2017-02-17T03:51:30.536Z,1016.09
2017-02-17T03:52:43.659Z,1016.1
2017-02-17T03:53:56.704Z,1016.07
2017-02-17T03:55:09.732Z,1016.03
2017-02-17T03:56:22.820Z,1016.06
2017-02-17T03:57:35.917Z,1016.04
2017-02-17T03:58:48.987Z,1016.04
2017-02-17T04:00:02.089Z,1016.06
2017-02-17T04:01:15.196Z,1016.01
2017-02-17T04:02:28.305Z,1016.01
2017-02-17T04:03:41.005Z,1016
2017-02-17T04:04:54.348Z,1016.01
2017-02-17T04:06:07.444Z,1015.98
2017-02-17T04:07:20.175Z,1015.96
2017-02-17T04:08:33.235Z,1015.98
2017-02-17T04:09:46.331Z,1015.96
2017-02-17T04:10:59.021Z,1015.94
2017-02-17T04:12:12.124Z,1015.91
2017-02-17T04:13:24.441Z,1015.88
2017-02-17T04:14:37.540Z,1015.86
2017-02-17T04:15:50.611Z,1015.88
2017-02-17T04:17:03.299Z,1015.86
2017-02-17T04:18:15.998Z,1015.81
2017-02-17T04:19:28.690Z,1015.81
2017-02-17T04:20:42.070Z,1015.81
2017-02-17T04:21:55.175Z,1015.78
2017-02-17T04:23:07.858Z,1015.79
2017-02-17T04:24:20.969Z,1015.77
2017-02-17T04:25:34.045Z,1015.78
2017-02-17T04:26:47.117Z,1015.74
2017-02-17T04:28:00.189Z,1015.78
2017-02-17T04:29:12.909Z,1015.75
2017-02-17T04:30:25.979Z,1015.69
2017-02-17T04:31:38.676Z,1015.75
2017-02-17T04:32:51.749Z,1015.76
2017-02-17T04:34:04.816Z,1015.71
2017-02-17T04:35:17.188Z,1015.71
2017-02-17T04:36:29.516Z,1015.68
2017-02-17T04:37:42.636Z,1015.7
2017-02-17T04:38:55.752Z,1015.66
2017-02-17T04:40:08.806Z,1015.66
2017-02-17T04:41:21.936Z,1015.62
2017-02-17T04:42:35.063Z,1015.59
2017-02-17T04:43:48.185Z,1015.6
2017-02-17T04:45:01.298Z,1015.58
2017-02-17T04:46:14.370Z,1015.61
2017-02-17T04:47:27.496Z,1015.56
2017-02-17T04:48:40.592Z,1015.61
2017-02-17T04:49:53.673Z,1015.59
2017-02-17T04:51:06.761Z,1015.62
2017-02-17T04:52:19.464Z,1015.58
2017-02-17T04:53:32.600Z,1015.55
2017-02-17T04:54:45.679Z,1015.55
2017-02-17T04:55:58.794Z,1015.52
2017-02-17T04:57:11.890Z,1015.49
2017-02-17T04:58:24.566Z,1015.5
2017-02-17T04:59:37.658Z,1015.46
2017-02-17T05:00:50.725Z,1015.45
2017-02-17T05:02:03.821Z,1015.44
2017-02-17T05:03:16.904Z,1015.43
2017-02-17T05:04:29.988Z,1015.42
2017-02-17T05:05:42.668Z,1015.39
2017-02-17T05:06:55.788Z,1015.38
2017-02-17T05:08:08.876Z,1015.38
2017-02-17T05:09:21.598Z,1015.34
2017-02-17T05:10:34.675Z,1015.27
2017-02-17T05:11:47.795Z,1015.28
2017-02-17T05:13:00.936Z,1015.2
2017-02-17T05:14:14.016Z,1015.27
2017-02-17T05:15:27.327Z,1015.2
2017-02-17T05:16:40.374Z,1015.16
2017-02-17T05:17:53.476Z,1015.18
2017-02-17T05:19:06.196Z,1015.2
2017-02-17T05:20:19.321Z,1015.22
2017-02-17T05:21:32.413Z,1015.2
2017-02-17T05:22:45.527Z,1015.18
2017-02-17T05:23:58.605Z,1015.16
2017-02-17T05:25:11.293Z,1015.14
2017-02-17T05:26:24.049Z,1015.09
2017-02-17T05:27:37.135Z,1015.09
2017-02-17T05:28:49.882Z,1015.13
2017-02-17T05:30:03.027Z,1015.08
2017-02-17T05:31:15.349Z,1015.08
2017-02-17T05:32:28.048Z,1015.09
2017-02-17T05:33:41.172Z,1015.05
2017-02-17T05:34:54.234Z,1015.08
2017-02-17T05:36:07.311Z,1015.1
2017-02-17T05:37:20.358Z,1015.03
2017-02-17T05:38:33.451Z,1015
2017-02-17T05:39:46.528Z,1014.97
2017-02-17T05:40:59.640Z,1014.99
2017-02-17T05:42:12.638Z,1015.04
2017-02-17T05:43:25.750Z,1015.08
2017-02-17T05:44:38.859Z,1015.08
2017-02-17T05:45:51.986Z,1015.1
2017-02-17T05:47:05.087Z,1015.07
2017-02-17T05:48:18.214Z,1015.09
2017-02-17T05:49:30.546Z,1015.12
2017-02-17T05:50:43.675Z,1015.07
2017-02-17T05:51:56.760Z,1015.09
2017-02-17T05:53:09.873Z,1015.02
2017-02-17T05:54:22.994Z,1014.99
2017-02-17T05:55:35.693Z,1015.02
2017-02-17T05:56:48.794Z,1015.05
2017-02-17T05:58:01.888Z,1015.01
2017-02-17T05:59:14.588Z,1015.01
2017-02-17T06:00:27.726Z,1015.01
2017-02-17T06:01:40.777Z,1015.02
2017-02-17T06:02:53.924Z,1015.01
2017-02-17T06:04:07.048Z,1015.01
2017-02-17T06:05:20.116Z,1015.02
2017-02-17T06:06:33.186Z,1014.99
2017-02-17T06:07:46.318Z,1014.99
2017-02-17T06:08:59.428Z,1015.01
2017-02-17T06:10:12.143Z,1014.97
2017-02-17T06:11:25.162Z,1015.02
2017-02-17T06:12:37.894Z,1015.01
2017-02-17T06:13:50.991Z,1015.01
2017-02-17T06:15:04.100Z,1014.96
2017-02-17T06:16:17.171Z,1014.96
2017-02-17T06:17:30.223Z,1014.96
2017-02-17T06:18:43.347Z,1015
2017-02-17T06:19:56.432Z,1015.01
2017-02-17T06:21:09.564Z,1014.96
2017-02-17T06:22:22.304Z,1015.02
2017-02-17T06:23:35.377Z,1014.97
2017-02-17T06:24:48.442Z,1015.02
2017-02-17T06:26:01.519Z,1015.02
2017-02-17T06:27:14.590Z,1015.04
2017-02-17T06:28:27.681Z,1015.07
2017-02-17T06:29:40.826Z,1015.08
2017-02-17T06:30:53.907Z,1015.09
2017-02-17T06:32:06.995Z,1015.1
2017-02-17T06:33:19.319Z,1015.08
2017-02-17T06:34:31.657Z,1015.12
2017-02-17T06:35:44.786Z,1015.1
2017-02-17T06:36:57.924Z,1015.13
2017-02-17T06:38:10.231Z,1015.15
2017-02-17T06:39:23.292Z,1015.17
2017-02-17T06:40:36.361Z,1015.16
2017-02-17T06:41:49.458Z,1015.17
2017-02-17T06:43:02.572Z,1015.13
2017-02-17T06:44:15.668Z,1015.14
2017-02-17T06:45:28.328Z,1015.15
2017-02-17T06:46:41.053Z,1015.11
2017-02-17T06:47:54.147Z,1015.08
2017-02-17T06:49:07.244Z,1015.07
2017-02-17T06:50:19.904Z,1015.03
2017-02-17T06:51:32.986Z,1015.05
2017-02-17T06:52:46.070Z,1015.04
2017-02-17T06:53:59.198Z,1015.05
2017-02-17T06:55:12.331Z,1015.06
2017-02-17T06:56:25.432Z,1015.03
2017-02-17T06:57:37.730Z,1015.01
2017-02-17T06:58:50.859Z,1015.02
2017-02-17T07:00:03.952Z,1015.03
2017-02-17T07:01:16.622Z,1015.02
2017-02-17T07:02:29.688Z,1014.98
2017-02-17T07:03:42.765Z,1015.01
2017-02-17T07:04:55.878Z,1015.03
2017-02-17T07:06:08.982Z,1015.06
2017-02-17T07:07:21.698Z,1015.06
2017-02-17T07:08:34.820Z,1015.06
2017-02-17T07:09:47.862Z,1015.05
2017-02-17T07:11:00.557Z,1015.03
2017-02-17T07:12:13.637Z,1015.06
2017-02-17T07:13:26.325Z,1015.03
2017-02-17T07:14:39.438Z,1015.06
2017-02-17T07:15:52.484Z,1015
2017-02-17T07:17:05.570Z,1015.04
2017-02-17T07:18:18.683Z,1015.03
2017-02-17T07:19:31.761Z,1015
2017-02-17T07:20:45.119Z,1015.01
2017-02-17T07:21:58.188Z,1014.98
2017-02-17T07:23:10.869Z,1014.99
2017-02-17T07:24:23.213Z,1014.98
2017-02-17T07:25:36.290Z,1014.93
2017-02-17T07:26:49.396Z,1014.91
2017-02-17T07:28:02.499Z,1014.96
2017-02-17T07:29:15.202Z,1014.94
2017-02-17T07:30:28.293Z,1014.96
2017-02-17T07:31:41.365Z,1014.9
2017-02-17T07:32:54.559Z,1014.88
2017-02-17T07:34:07.639Z,1014.87
2017-02-17T07:35:20.725Z,1014.92
2017-02-17T07:36:33.828Z,1014.88
2017-02-17T07:37:46.919Z,1014.86
2017-02-17T07:38:59.981Z,1014.88
2017-02-17T07:40:12.302Z,1014.88
2017-02-17T07:41:25.033Z,1014.87
2017-02-17T07:42:38.126Z,1014.87
2017-02-17T07:43:51.253Z,1014.88
2017-02-17T07:45:03.968Z,1014.87
2017-02-17T07:46:17.070Z,1014.86
2017-02-17T07:47:30.215Z,1014.87
2017-02-17T07:48:42.928Z,1014.85
2017-02-17T07:49:56.052Z,1014.83
2017-02-17T07:51:09.131Z,1014.83
2017-02-17T07:52:22.304Z,1014.82
2017-02-17T07:53:35.470Z,1014.83
2017-02-17T07:54:48.569Z,1014.78
2017-02-17T07:56:01.705Z,1014.79
2017-02-17T07:57:14.426Z,1014.8
2017-02-17T07:58:27.524Z,1014.81
2017-02-17T07:59:40.594Z,1014.79
2017-02-17T08:00:53.670Z,1014.8
2017-02-17T08:02:06.840Z,1014.81
2017-02-17T08:03:19.181Z,1014.81
2017-02-17T08:04:32.275Z,1014.79
2017-02-17T08:05:45.304Z,1014.78
2017-02-17T08:06:58.036Z,1014.78
2017-02-17T08:08:11.119Z,1014.78
2017-02-17T08:09:24.191Z,1014.79
2017-02-17T08:10:36.863Z,1014.82
2017-02-17T08:11:49.583Z,1014.88
2017-02-17T08:13:02.672Z,1014.85
2017-02-17T08:14:15.400Z,1014.86
2017-02-17T08:15:28.522Z,1014.84
2017-02-17T08:16:41.591Z,1014.86
2017-02-17T08:17:54.661Z,1014.81
2017-02-17T08:19:07.769Z,1014.81
2017-02-17T08:20:20.096Z,1014.84
2017-02-17T08:21:33.145Z,1014.85
2017-02-17T08:22:46.239Z,1014.87
2017-02-17T08:23:59.336Z,1014.85
2017-02-17T08:25:12.438Z,1014.85
2017-02-17T08:26:25.551Z,1014.86
2017-02-17T08:27:38.279Z,1014.82
2017-02-17T08:28:50.977Z,1014.82
2017-02-17T08:30:04.065Z,1014.83
2017-02-17T08:31:16.417Z,1014.82
2017-02-17T08:32:29.509Z,1014.72
2017-02-17T08:33:42.219Z,1014.81
2017-02-17T08:34:54.930Z,1014.81
2017-02-17T08:36:07.669Z,1014.77
2017-02-17T08:37:20.766Z,1014.83
2017-02-17T08:38:33.818Z,1014.84
2017-02-17T08:39:46.918Z,1014.81
2017-02-17T08:40:59.977Z,1014.82
2017-02-17T08:42:13.087Z,1014.8
2017-02-17T08:43:25.804Z,1014.8
2017-02-17T08:44:38.947Z,1014.79
2017-02-17T08:45:52.028Z,1014.78
2017-02-17T08:47:05.163Z,1014.74
2017-02-17T08:48:17.080Z,1014.73
2017-02-17T08:49:30.191Z,1014.78
2017-02-17T08:50:42.520Z,1014.76
2017-02-17T08:51:55.609Z,1014.75
2017-02-17T08:53:08.313Z,1014.78
2017-02-17T08:54:21.432Z,1014.75
2017-02-17T08:55:34.167Z,1014.72
2017-02-17T08:56:46.933Z,1014.74
2017-02-17T08:58:00.045Z,1014.74
2017-02-17T08:59:12.716Z,1014.76
2017-02-17T09:00:25.466Z,1014.74
2017-02-17T09:01:38.134Z,1014.77
2017-02-17T09:02:51.228Z,1014.72
2017-02-17T09:04:04.332Z,1014.77
2017-02-17T09:05:17.422Z,1014.75
2017-02-17T09:06:30.511Z,1014.79
2017-02-17T09:07:43.263Z,1014.82
2017-02-17T09:08:56.358Z,1014.84
2017-02-17T09:10:09.482Z,1014.86
2017-02-17T09:11:22.193Z,1014.85
2017-02-17T09:12:35.271Z,1014.8
2017-02-17T09:13:48.370Z,1014.8
2017-02-17T09:15:01.465Z,1014.79
2017-02-17T09:16:14.534Z,1014.77
2017-02-17T09:17:26.887Z,1014.78
2017-02-17T09:18:39.983Z,1014.85
2017-02-17T09:19:53.073Z,1014.81
2017-02-17T09:21:05.753Z,1014.78
2017-02-17T09:22:18.822Z,1014.72
2017-02-17T09:23:31.512Z,1014.72
2017-02-17T09:24:44.591Z,1014.71
2017-02-17T09:25:57.303Z,1014.69
2017-02-17T09:27:10.026Z,1014.68
2017-02-17T09:28:23.100Z,1014.71
2017-02-17T09:29:36.191Z,1014.71
2017-02-17T09:30:48.934Z,1014.66
2017-02-17T09:32:02.033Z,1014.7
2017-02-17T09:33:15.109Z,1014.73
2017-02-17T09:34:27.841Z,1014.73
2017-02-17T09:35:40.969Z,1014.7
2017-02-17T09:36:54.115Z,1014.69
2017-02-17T09:38:07.196Z,1014.71
2017-02-17T09:39:19.933Z,1014.72
2017-02-17T09:40:33.031Z,1014.7
2017-02-17T09:41:46.124Z,1014.74
2017-02-17T09:42:59.198Z,1014.66
2017-02-17T09:44:12.215Z,1014.69
2017-02-17T09:45:24.916Z,1014.69
2017-02-17T09:46:37.981Z,1014.68
2017-02-17T09:47:50.710Z,1014.69
2017-02-17T09:49:03.835Z,1014.73
2017-02-17T09:50:16.545Z,1014.71
2017-02-17T09:51:29.672Z,1014.73
2017-02-17T09:52:42.771Z,1014.64
2017-02-17T09:53:55.880Z,1014.61
2017-02-17T09:55:07.404Z,1014.62
2017-02-17T09:56:20.498Z,1014.62
2017-02-17T09:57:33.174Z,1014.67
2017-02-17T09:58:46.268Z,1014.65
2017-02-17T09:59:59.369Z,1014.66
2017-02-17T10:01:12.062Z,1014.67
2017-02-17T10:02:24.721Z,1014.66
2017-02-17T10:03:37.850Z,1014.72
2017-02-17T10:04:50.897Z,1014.71
2017-02-17T10:06:03.960Z,1014.66
2017-02-17T10:07:17.071Z,1014.69
2017-02-17T10:08:30.231Z,1014.68
2017-02-17T10:09:43.355Z,1014.73
2017-02-17T10:10:56.459Z,1014.74
2017-02-17T10:12:09.178Z,1014.68
2017-02-17T10:13:21.911Z,1014.66
2017-02-17T10:14:34.970Z,1014.66
2017-02-17T10:15:47.732Z,1014.63
2017-02-17T10:17:00.848Z,1014.64
2017-02-17T10:18:14.255Z,1014.61
2017-02-17T10:19:27.345Z,1014.63
2017-02-17T10:20:40.001Z,1014.65
2017-02-17T10:21:52.672Z,1014.62
2017-02-17T10:23:05.433Z,1014.67
2017-02-17T10:24:18.536Z,1014.66
2017-02-17T10:25:31.649Z,1014.71
2017-02-17T10:26:44.772Z,1014.63
2017-02-17T10:27:57.826Z,1014.62
2017-02-17T10:29:10.515Z,1014.63
2017-02-17T10:30:23.241Z,1014.59
2017-02-17T10:31:36.364Z,1014.63
2017-02-17T10:32:49.402Z,1014.6
2017-02-17T10:34:02.457Z,1014.62
2017-02-17T10:35:15.549Z,1014.61
2017-02-17T10:36:28.258Z,1014.61
2017-02-17T10:37:41.379Z,1014.58
2017-02-17T10:38:54.430Z,1014.6
2017-02-17T10:40:07.550Z,1014.6
2017-02-17T10:41:19.904Z,1014.59
2017-02-17T10:42:33.019Z,1014.56
2017-02-17T10:43:46.140Z,1014.6
2017-02-17T10:44:58.842Z,1014.54
2017-02-17T10:46:11.934Z,1014.48
2017-02-17T10:47:25.074Z,1014.46
2017-02-17T10:48:38.174Z,1014.46
2017-02-17T10:49:51.287Z,1014.5
2017-02-17T10:51:04.457Z,1014.51
2017-02-17T10:52:17.566Z,1014.52
2017-02-17T10:53:30.705Z,1014.53
2017-02-17T10:54:43.828Z,1014.51
2017-02-17T10:55:56.880Z,1014.55
2017-02-17T10:57:10.023Z,1014.52
2017-02-17T10:58:23.082Z,1014.45
2017-02-17T10:59:36.121Z,1014.41
2017-02-17T11:00:49.219Z,1014.41
2017-02-17T11:02:02.360Z,1014.39
2017-02-17T11:03:15.477Z,1014.37
2017-02-17T11:04:28.194Z,1014.36
2017-02-17T11:05:41.294Z,1014.37
2017-02-17T11:06:54.040Z,1014.36
2017-02-17T11:08:07.114Z,1014.36
2017-02-17T11:09:19.821Z,1014.3
2017-02-17T11:10:32.877Z,1014.28
2017-02-17T11:11:45.922Z,1014.34
2017-02-17T11:12:58.628Z,1014.33
2017-02-17T11:14:11.335Z,1014.34
2017-02-17T11:15:24.439Z,1014.36
2017-02-17T11:16:37.553Z,1014.35
2017-02-17T11:17:50.675Z,1014.3
2017-02-17T11:19:04.137Z,1014.32
2017-02-17T11:20:17.263Z,1014.33
2017-02-17T11:21:29.980Z,1014.28
2017-02-17T11:22:43.085Z,1014.27
2017-02-17T11:23:56.161Z,1014.26
2017-02-17T11:25:08.829Z,1014.27
2017-02-17T11:26:21.589Z,1014.27
2017-02-17T11:27:34.359Z,1014.23
2017-02-17T11:28:47.036Z,1014.23
2017-02-17T11:30:00.115Z,1014.22
2017-02-17T11:31:12.859Z,1014.23
2017-02-17T11:32:25.932Z,1014.22
2017-02-17T11:33:39.015Z,1014.19
2017-02-17T11:34:52.149Z,1014.2
2017-02-17T11:36:05.290Z,1014.16
2017-02-17T11:37:18.369Z,1014.22
2017-02-17T11:38:31.472Z,1014.19
2017-02-17T11:39:44.574Z,1014.11
2017-02-17T11:40:57.279Z,1014.17
2017-02-17T11:42:10.344Z,1014.17
2017-02-17T11:43:23.417Z,1014.16
2017-02-17T11:44:36.466Z,1014.2
2017-02-17T11:45:49.588Z,1014.14
2017-02-17T11:47:02.680Z,1014.14
2017-02-17T11:48:15.007Z,1014.14
2017-02-17T11:49:28.076Z,1014.15
2017-02-17T11:50:41.163Z,1014.17
2017-02-17T11:51:54.291Z,1014.18
2017-02-17T11:53:07.481Z,1014.22
2017-02-17T11:54:20.161Z,1014.26
2017-02-17T11:55:33.222Z,1014.34
2017-02-17T11:56:46.293Z,1014.28
2017-02-17T11:57:59.456Z,1014.26
2017-02-17T11:59:12.559Z,1014.27
2017-02-17T12:00:25.632Z,1014.3
2017-02-17T12:01:38.701Z,1014.35
2017-02-17T12:02:52.053Z,1014.32
2017-02-17T12:04:04.748Z,1014.34
2017-02-17T12:05:17.448Z,1014.31
2017-02-17T12:06:30.541Z,1014.27
2017-02-17T12:07:43.643Z,1014.27
2017-02-17T12:08:56.778Z,1014.2
2017-02-17T12:10:09.903Z,1014.21
2017-02-17T12:11:22.944Z,1014.13
2017-02-17T12:12:36.063Z,1014.12
2017-02-17T12:13:49.161Z,1014.12
2017-02-17T12:15:02.235Z,1014.11
2017-02-17T12:16:14.961Z,1014.06
2017-02-17T12:17:28.145Z,1014.14
2017-02-17T12:18:41.243Z,1014.08
2017-02-17T12:19:54.299Z,1014.12
2017-02-17T12:21:07.409Z,1014.21
2017-02-17T12:22:20.124Z,1014.19
2017-02-17T12:23:32.870Z,1014.2
2017-02-17T12:24:45.971Z,1014.2
2017-02-17T12:25:59.067Z,1014.18
2017-02-17T12:27:11.795Z,1014.18
2017-02-17T12:28:24.894Z,1014.17
2017-02-17T12:29:37.987Z,1014.17
2017-02-17T12:30:50.334Z,1014.15
2017-02-17T12:32:03.476Z,1014.17
2017-02-17T12:33:16.193Z,1014.13
2017-02-17T12:34:29.340Z,1014.09
2017-02-17T12:35:42.409Z,1014.05
2017-02-17T12:36:55.556Z,1014.1
2017-02-17T12:38:08.658Z,1014.13
2017-02-17T12:39:21.734Z,1014.07
2017-02-17T12:40:34.812Z,1014.07
2017-02-17T12:41:47.515Z,1014.09
2017-02-17T12:43:00.203Z,1014.09
2017-02-17T12:44:12.525Z,1014.07
2017-02-17T12:45:25.609Z,1014.13
2017-02-17T12:46:37.971Z,1014.07
2017-02-17T12:47:50.719Z,1014.09
2017-02-17T12:49:03.415Z,1014.06
2017-02-17T12:50:16.494Z,1014.08
2017-02-17T12:51:29.599Z,1014.05
2017-02-17T12:52:42.683Z,1014.1
2017-02-17T12:53:55.773Z,1014.07
2017-02-17T12:55:08.437Z,1014.1
2017-02-17T12:56:21.115Z,1014.03
2017-02-17T12:57:33.859Z,1014.09
2017-02-17T12:58:46.582Z,1014.04
2017-02-17T12:59:59.670Z,1014.08
2017-02-17T13:01:12.017Z,1014.07
2017-02-17T13:02:24.726Z,1013.99
2017-02-17T13:03:37.889Z,1013.98
2017-02-17T13:04:50.987Z,1013.98
2017-02-17T13:06:03.317Z,1014.01
2017-02-17T13:07:16.058Z,1013.98
2017-02-17T13:08:28.823Z,1013.9
2017-02-17T13:09:41.951Z,1013.91
2017-02-17T13:10:55.089Z,1013.88
2017-02-17T13:12:07.829Z,1013.9
2017-02-17T13:13:20.511Z,1013.86
2017-02-17T13:14:33.653Z,1013.87
2017-02-17T13:15:46.718Z,1013.85
2017-02-17T13:16:59.826Z,1013.87
2017-02-17T13:18:12.534Z,1013.86
2017-02-17T13:19:25.664Z,1013.87
2017-02-17T13:20:38.776Z,1013.86
2017-02-17T13:21:51.887Z,1013.91
2017-02-17T13:23:04.967Z,1013.93
2017-02-17T13:24:18.044Z,1013.96
2017-02-17T13:25:30.730Z,1013.95
2017-02-17T13:26:43.869Z,1014.02
2017-02-17T13:27:56.992Z,1013.96
2017-02-17T13:29:10.103Z,1013.98
2017-02-17T13:30:23.213Z,1014.02
2017-02-17T13:31:36.370Z,1014.04
2017-02-17T13:32:49.467Z,1014.01
2017-02-17T13:34:02.538Z,1014.04
2017-02-17T13:35:15.251Z,1014.05
2017-02-17T13:36:28.358Z,1014.04
2017-02-17T13:37:41.461Z,1014.05
2017-02-17T13:38:54.554Z,1014.09
2017-02-17T13:40:07.998Z,1014.08
2017-02-17T13:41:20.693Z,1014.1
2017-02-17T13:42:33.812Z,1014.11
2017-02-17T13:43:46.906Z,1014.06
2017-02-17T13:44:59.607Z,1014.04
2017-02-17T13:46:12.725Z,1014.03
2017-02-17T13:47:25.473Z,1014.03
2017-02-17T13:48:38.605Z,1014
2017-02-17T13:49:51.687Z,1014.01
2017-02-17T13:51:04.334Z,1014.02
2017-02-17T13:52:17.049Z,1013.97
2017-02-17T13:53:30.152Z,1013.97
2017-02-17T13:54:43.242Z,1013.97
2017-02-17T13:55:55.938Z,1013.99
2017-02-17T13:57:08.239Z,1014
2017-02-17T13:58:20.614Z,1014.05
2017-02-17T13:59:33.718Z,1014.05
2017-02-17T14:00:46.800Z,1014.09
2017-02-17T14:01:59.892Z,1014.08
2017-02-17T14:03:12.599Z,1014.06
2017-02-17T14:04:25.290Z,1014.12
2017-02-17T14:05:38.389Z,1014.1
2017-02-17T14:06:51.102Z,1014.16
2017-02-17T14:08:04.228Z,1014.13
2017-02-17T14:09:16.925Z,1014.18
2017-02-17T14:10:30.014Z,1014.21
2017-02-17T14:11:43.091Z,1014.16
2017-02-17T14:12:55.829Z,1014.18
2017-02-17T14:14:08.551Z,1014.21
2017-02-17T14:15:21.278Z,1014.22
2017-02-17T14:16:34.374Z,1014.22
2017-02-17T14:17:47.314Z,1014.28
2017-02-17T14:19:00.413Z,1014.23
2017-02-17T14:20:13.485Z,1014.22
2017-02-17T14:21:26.537Z,1014.28
2017-02-17T14:22:39.624Z,1014.23
2017-02-17T14:23:52.369Z,1014.22
2017-02-17T14:25:05.448Z,1014.24
2017-02-17T14:26:18.558Z,1014.25
2017-02-17T14:27:31.305Z,1014.22
2017-02-17T14:28:44.394Z,1014.3
2017-02-17T14:29:57.472Z,1014.28
2017-02-17T14:31:10.549Z,1014.27
2017-02-17T14:32:23.290Z,1014.32
2017-02-17T14:33:35.977Z,1014.3
2017-02-17T14:34:48.659Z,1014.33
2017-02-17T14:36:01.807Z,1014.32
2017-02-17T14:37:14.516Z,1014.27
2017-02-17T14:38:27.273Z,1014.25
2017-02-17T14:39:40.583Z,1014.25
2017-02-17T14:40:53.685Z,1014.23
2017-02-17T14:42:06.756Z,1014.22
2017-02-17T14:43:19.788Z,1014.17
2017-02-17T14:44:32.879Z,1014.16
2017-02-17T14:45:45.974Z,1014.22